createdAt,value
2018-01-15T00:00:46.524Z,42.50
2018-01-15T00:01:46.476Z,41.30
2018-01-15T00:02:46.459Z,43.60
2018-01-15T00:03:46.397Z,41.90
2018-01-15T00:04:46.353Z,44.10
2018-01-15T00:05:46.317Z,45.00
2018-01-15T00:06:46.327Z,43.40
2018-01-15T00:07:46.229Z,41.00
2018-01-15T00:08:46.188Z,43.40
2018-01-15T00:09:46.147Z,36.90
2018-01-15T00:10:46.101Z,47.50
2018-01-15T00:11:46.061Z,40.00
2018-01-15T00:12:46.021Z,41.90
2018-01-15T00:13:45.988Z,42.20
2018-01-15T00:14:45.942Z,41.90
2018-01-15T00:15:45.905Z,41.20
2018-01-15T00:16:45.867Z,40.00
2018-01-15T00:17:45.813Z,42.60
2018-01-15T00:18:45.819Z,39.20
2018-01-15T00:19:45.727Z,38.30
2018-01-15T00:20:45.684Z,38.00
2018-01-15T00:21:45.643Z,41.20
2018-01-15T00:22:45.604Z,38.50
2018-01-15T00:23:45.559Z,45.60
2018-01-15T00:24:45.520Z,44.20
2018-01-15T00:25:45.478Z,41.30
2018-01-15T00:26:45.460Z,40.80
2018-01-15T00:27:45.410Z,41.10
2018-01-15T00:28:45.356Z,42.00
2018-01-15T00:29:45.309Z,42.30
2018-01-15T00:30:45.269Z,49.00
2018-01-15T00:31:45.240Z,45.50
2018-01-15T00:32:45.184Z,39.70
2018-01-15T00:33:45.143Z,41.50
2018-01-15T00:34:45.099Z,43.30
2018-01-15T00:35:45.059Z,45.90
2018-01-15T00:36:45.015Z,39.40
2018-01-15T00:37:44.975Z,41.10
2018-01-15T00:38:44.932Z,42.90
2018-01-15T00:39:44.887Z,43.90
2018-01-15T00:40:44.846Z,49.20
2018-01-15T00:41:44.805Z,39.90
2018-01-15T00:42:44.765Z,47.90
2018-01-15T00:43:44.722Z,48.90
2018-01-15T00:44:44.686Z,44.30
2018-01-15T00:45:44.639Z,42.80
2018-01-15T00:46:44.597Z,42.40
2018-01-15T00:47:44.556Z,47.80
2018-01-15T00:48:44.512Z,46.70
2018-01-15T00:49:44.471Z,45.50
2018-01-15T00:50:44.430Z,46.60
2018-01-15T00:51:44.386Z,45.20
2018-01-15T00:52:44.344Z,44.90
2018-01-15T00:53:44.304Z,49.70
2018-01-15T00:54:44.261Z,46.10
2018-01-15T00:55:44.221Z,46.30
2018-01-15T00:56:44.176Z,48.00
2018-01-15T00:57:44.141Z,52.80
2018-01-15T00:58:44.093Z,46.40
2018-01-15T00:59:44.051Z,46.70
2018-01-15T01:00:44.009Z,44.40
2018-01-15T01:01:44.827Z,46.50
2018-01-15T01:02:43.923Z,42.90
2018-01-15T01:03:43.882Z,46.10
2018-01-15T01:04:43.845Z,45.70
2018-01-15T01:05:43.819Z,46.60
2018-01-15T01:06:43.770Z,46.00
2018-01-15T01:07:43.712Z,44.80
2018-01-15T01:08:43.673Z,46.90
2018-01-15T01:09:43.631Z,46.70
2018-01-15T01:10:43.587Z,43.20
2018-01-15T01:11:43.549Z,44.20
2018-01-15T01:12:43.506Z,42.40
2018-01-15T01:13:43.474Z,41.80
2018-01-15T01:14:43.466Z,40.20
2018-01-15T01:15:43.379Z,43.40
2018-01-15T01:16:43.334Z,45.70
2018-01-15T01:17:43.294Z,42.10
2018-01-15T01:18:43.252Z,41.80
2018-01-15T01:19:43.210Z,41.90
2018-01-15T01:20:43.172Z,40.90
2018-01-15T01:21:43.128Z,42.10
2018-01-15T01:22:43.088Z,42.50
2018-01-15T01:23:43.044Z,39.80
2018-01-15T01:24:43.010Z,43.30
2018-01-15T01:25:42.960Z,42.40
2018-01-15T01:26:42.920Z,40.40
2018-01-15T01:27:42.877Z,40.30
2018-01-15T01:28:42.836Z,40.20
2018-01-15T01:29:42.791Z,38.30
2018-01-15T01:30:42.755Z,42.60
2018-01-15T01:31:42.733Z,41.40
2018-01-15T01:32:42.690Z,39.80
2018-01-15T01:33:42.628Z,41.00
2018-01-15T01:34:42.587Z,43.70
2018-01-15T01:35:42.545Z,38.70
2018-01-15T01:36:42.523Z,42.10
2018-01-15T01:37:42.461Z,39.80
2018-01-15T01:38:42.421Z,38.80
2018-01-15T01:39:42.378Z,38.90
2018-01-15T01:40:42.338Z,39.90
2018-01-15T01:41:42.320Z,36.20
2018-01-15T01:42:42.253Z,40.90
2018-01-15T01:43:42.239Z,41.50
2018-01-15T01:44:42.170Z,39.40
2018-01-15T01:45:42.175Z,42.60
2018-01-15T01:46:42.089Z,41.60
2018-01-15T01:47:42.055Z,37.40
2018-01-15T01:48:42.006Z,41.20
2018-01-15T01:49:41.963Z,39.10
2018-01-15T01:50:41.938Z,39.10
2018-01-15T01:51:41.879Z,39.10
2018-01-15T01:52:41.846Z,39.70
2018-01-15T01:53:41.815Z,41.20
2018-01-15T01:54:41.796Z,42.70
2018-01-15T01:55:41.715Z,42.20
2018-01-15T01:56:41.697Z,38.90
2018-01-15T01:57:41.662Z,37.50
2018-01-15T01:58:41.592Z,42.60
2018-01-15T01:59:41.555Z,40.40
2018-01-15T02:00:41.514Z,38.80
2018-01-15T02:01:41.467Z,41.70
2018-01-15T02:02:41.438Z,42.80
2018-01-15T02:03:41.390Z,47.70
2018-01-15T02:04:41.373Z,39.20
2018-01-15T02:05:41.304Z,40.30
2018-01-15T02:06:41.261Z,37.20
2018-01-15T02:07:41.218Z,40.00
2018-01-15T02:08:41.187Z,45.00
2018-01-15T02:09:41.139Z,44.50
2018-01-15T02:10:41.093Z,39.40
2018-01-15T02:11:41.070Z,40.40
2018-01-15T02:12:41.019Z,44.00
2018-01-15T02:13:40.970Z,44.00
2018-01-15T02:14:40.926Z,41.40
2018-01-15T02:15:40.887Z,39.70
2018-01-15T02:16:40.846Z,42.00
2018-01-15T02:17:40.805Z,39.40
2018-01-15T02:18:40.789Z,41.50
2018-01-15T02:19:40.754Z,42.20
2018-01-15T02:20:40.682Z,40.60
2018-01-15T02:21:40.639Z,46.90
2018-01-15T02:22:40.643Z,42.70
2018-01-15T02:23:40.603Z,41.60
2018-01-15T02:24:40.512Z,43.30
2018-01-15T02:25:40.512Z,44.60
2018-01-15T02:26:40.443Z,42.50
2018-01-15T02:27:40.405Z,41.60
2018-01-15T02:28:40.346Z,40.70
2018-01-15T02:29:40.308Z,44.70
2018-01-15T02:30:40.279Z,40.60
2018-01-15T02:31:40.229Z,42.10
2018-01-15T02:32:40.182Z,43.90
2018-01-15T02:33:40.144Z,43.70
2018-01-15T02:34:40.125Z,45.10
2018-01-15T02:35:40.058Z,47.00
2018-01-15T02:36:40.018Z,41.20
2018-01-15T02:37:39.985Z,45.20
2018-01-15T02:38:39.937Z,42.20
2018-01-15T02:39:39.893Z,39.10
2018-01-15T02:40:39.855Z,40.80
2018-01-15T02:41:39.819Z,38.00
2018-01-15T02:42:39.770Z,39.20
2018-01-15T02:43:39.730Z,38.10
2018-01-15T02:44:39.687Z,40.00
2018-01-15T02:45:39.649Z,37.80
2018-01-15T02:46:39.639Z,40.50
2018-01-15T02:47:39.566Z,40.80
2018-01-15T02:48:39.530Z,37.20
2018-01-15T02:49:39.493Z,42.70
2018-01-15T02:50:39.451Z,43.90
2018-01-15T02:51:39.400Z,37.80
2018-01-15T02:52:39.355Z,41.20
2018-01-15T02:53:39.339Z,41.30
2018-01-15T02:54:39.278Z,47.80
2018-01-15T02:55:39.257Z,45.70
2018-01-15T02:56:39.203Z,43.30
2018-01-15T02:57:39.151Z,42.80
2018-01-15T02:58:39.112Z,40.60
2018-01-15T02:59:39.069Z,40.80
2018-01-15T03:00:39.031Z,42.60
2018-01-15T03:01:38.985Z,44.00
2018-01-15T03:02:38.959Z,38.20
2018-01-15T03:03:38.907Z,41.20
2018-01-15T03:04:38.874Z,45.10
2018-01-15T03:05:38.852Z,38.20
2018-01-15T03:06:38.804Z,46.50
2018-01-15T03:07:38.764Z,40.60
2018-01-15T03:08:38.697Z,44.80
2018-01-15T03:09:38.656Z,41.50
2018-01-15T03:10:38.617Z,41.40
2018-01-15T03:11:38.584Z,44.20
2018-01-15T03:12:38.531Z,44.20
2018-01-15T03:13:38.491Z,41.80
2018-01-15T03:14:38.447Z,41.00
2018-01-15T03:15:38.408Z,43.80
2018-01-15T03:16:38.367Z,42.30
2018-01-15T03:17:38.325Z,42.40
2018-01-15T03:18:38.287Z,38.10
2018-01-15T03:19:38.244Z,43.40
2018-01-15T03:20:38.205Z,42.50
2018-01-15T03:21:38.162Z,43.70
2018-01-15T03:22:38.121Z,41.70
2018-01-15T03:23:38.079Z,37.20
2018-01-15T03:24:38.034Z,38.70
2018-01-15T03:25:37.997Z,41.30
2018-01-15T03:26:37.962Z,38.70
2018-01-15T03:27:37.936Z,40.30
2018-01-15T03:28:37.893Z,36.50
2018-01-15T03:29:37.832Z,39.00
2018-01-15T03:30:37.790Z,40.80
2018-01-15T03:31:37.748Z,39.40
2018-01-15T03:32:37.708Z,40.20
2018-01-15T03:33:37.668Z,34.00
2018-01-15T03:34:37.630Z,40.20
2018-01-15T03:35:37.583Z,39.60
2018-01-15T03:36:37.546Z,42.30
2018-01-15T03:37:37.504Z,46.40
2018-01-15T03:38:37.463Z,40.20
2018-01-15T03:39:37.420Z,43.20
2018-01-15T03:40:37.379Z,36.90
2018-01-15T03:41:37.338Z,41.00
2018-01-15T03:42:37.295Z,45.40
2018-01-15T03:43:37.257Z,44.20
2018-01-15T03:44:37.215Z,44.10
2018-01-15T03:45:37.195Z,40.10
2018-01-15T03:46:37.133Z,40.00
2018-01-15T03:47:37.092Z,42.60
2018-01-15T03:48:37.050Z,40.60
2018-01-15T03:49:37.009Z,42.50
2018-01-15T03:50:36.968Z,38.20
2018-01-15T03:51:36.930Z,41.60
2018-01-15T03:52:36.883Z,39.20
2018-01-15T03:53:36.845Z,40.60
2018-01-15T03:54:36.821Z,42.20
2018-01-15T03:55:36.761Z,41.60
2018-01-15T03:56:36.737Z,41.90
2018-01-15T03:57:36.681Z,40.40
2018-01-15T03:58:36.641Z,40.80
2018-01-15T03:59:36.594Z,44.20
2018-01-15T04:00:36.555Z,39.70
2018-01-15T04:01:36.517Z,38.60
2018-01-15T04:02:36.505Z,39.60
2018-01-15T04:03:36.429Z,38.50
2018-01-15T04:04:36.388Z,36.70
2018-01-15T04:05:36.372Z,38.50
2018-01-15T04:06:36.313Z,35.20
2018-01-15T04:07:36.278Z,39.90
2018-01-15T04:08:36.224Z,36.90
2018-01-15T04:09:36.212Z,37.10
2018-01-15T04:10:36.152Z,39.80
2018-01-15T04:11:36.102Z,39.50
2018-01-15T04:12:36.061Z,37.90
2018-01-15T04:13:36.033Z,43.70
2018-01-15T04:14:35.980Z,41.10
2018-01-15T04:15:35.955Z,37.30
2018-01-15T04:16:35.902Z,42.70
2018-01-15T04:17:35.864Z,39.20
2018-01-15T04:18:35.815Z,39.70
2018-01-15T04:19:35.772Z,39.20
2018-01-15T04:20:35.749Z,41.90
2018-01-15T04:21:35.690Z,42.20
2018-01-15T04:22:35.648Z,41.00
2018-01-15T04:23:35.611Z,40.20
2018-01-15T04:24:35.566Z,39.00
2018-01-15T04:25:35.528Z,40.80
2018-01-15T04:26:35.533Z,42.10
2018-01-15T04:27:35.444Z,40.60
2018-01-15T04:28:35.431Z,41.90
2018-01-15T04:29:35.359Z,39.40
2018-01-15T04:30:35.319Z,41.80
2018-01-15T04:31:35.279Z,42.40
2018-01-15T04:32:35.241Z,42.60
2018-01-15T04:33:35.216Z,44.50
2018-01-15T04:34:35.156Z,41.40
2018-01-15T04:35:35.112Z,39.60
2018-01-15T04:36:35.086Z,42.20
2018-01-15T04:37:35.044Z,42.50
2018-01-15T04:38:34.986Z,41.00
2018-01-15T04:39:34.943Z,39.20
2018-01-15T04:40:34.903Z,39.60
2018-01-15T04:41:34.889Z,38.00
2018-01-15T04:42:34.821Z,38.70
2018-01-15T04:43:34.800Z,42.80
2018-01-15T04:44:35.347Z,40.90
2018-01-15T04:45:35.310Z,41.50
2018-01-15T04:46:35.388Z,47.20
2018-01-15T04:47:34.612Z,48.70
2018-01-15T04:48:34.577Z,38.90
2018-01-15T04:49:34.538Z,41.40
2018-01-15T04:50:34.541Z,38.10
2018-01-15T04:51:34.454Z,43.10
2018-01-15T04:52:34.403Z,39.60
2018-01-15T04:53:34.386Z,37.80
2018-01-15T04:54:34.330Z,44.90
2018-01-15T04:55:34.278Z,39.20
2018-01-15T04:56:34.238Z,46.00
2018-01-15T04:57:34.195Z,46.00
2018-01-15T04:58:34.155Z,43.80
2018-01-15T04:59:34.121Z,38.80
2018-01-15T05:00:34.073Z,43.80
2018-01-15T05:01:34.029Z,41.40
2018-01-15T05:02:33.988Z,43.40
2018-01-15T05:03:33.966Z,42.20
2018-01-15T05:04:33.905Z,39.60
2018-01-15T05:05:33.870Z,40.50
2018-01-15T05:06:33.821Z,41.60
2018-01-15T05:07:33.779Z,42.20
2018-01-15T05:08:33.742Z,42.20
2018-01-15T05:09:33.700Z,43.90
2018-01-15T05:10:33.655Z,41.90
2018-01-15T05:11:33.614Z,42.00
2018-01-15T05:12:33.589Z,40.40
2018-01-15T05:13:33.539Z,43.10
2018-01-15T05:14:33.486Z,42.60
2018-01-15T05:15:33.456Z,43.50
2018-01-15T05:16:33.404Z,39.60
2018-01-15T05:17:33.394Z,40.10
2018-01-15T05:18:33.343Z,40.90
2018-01-15T05:19:33.279Z,47.00
2018-01-15T05:20:33.256Z,39.40
2018-01-15T05:21:33.195Z,43.70
2018-01-15T05:22:33.629Z,42.50
2018-01-15T05:23:33.118Z,45.20
2018-01-15T05:24:33.109Z,43.90
2018-01-15T05:25:33.031Z,43.20
2018-01-15T05:26:32.986Z,44.00
2018-01-15T05:27:32.946Z,41.30
2018-01-15T05:28:32.902Z,41.00
2018-01-15T05:29:32.879Z,47.50
2018-01-15T05:30:32.839Z,43.30
2018-01-15T05:31:32.775Z,39.50
2018-01-15T05:32:32.735Z,41.90
2018-01-15T05:33:32.695Z,45.50
2018-01-15T05:34:32.657Z,45.30
2018-01-15T05:35:32.633Z,42.60
2018-01-15T05:36:32.570Z,46.10
2018-01-15T05:37:32.528Z,45.60
2018-01-15T05:38:32.489Z,45.60
2018-01-15T05:39:32.447Z,46.00
2018-01-15T05:40:32.403Z,47.10
2018-01-15T05:41:32.391Z,43.70
2018-01-15T05:42:32.374Z,44.80
2018-01-15T05:43:32.281Z,48.60
2018-01-15T05:44:32.245Z,49.00
2018-01-15T05:45:32.194Z,49.50
2018-01-15T05:46:32.147Z,45.00
2018-01-15T05:47:32.129Z,44.50
2018-01-15T05:48:32.068Z,45.10
2018-01-15T05:49:32.039Z,45.60
2018-01-15T05:50:31.983Z,42.80
2018-01-15T05:51:31.963Z,44.10
2018-01-15T05:52:31.928Z,39.70
2018-01-15T05:53:31.888Z,51.90
2018-01-15T05:54:31.821Z,44.60
2018-01-15T05:55:31.775Z,46.20
2018-01-15T05:56:31.736Z,40.90
2018-01-15T05:57:31.693Z,43.40
2018-01-15T05:58:31.650Z,44.40
2018-01-15T05:59:31.606Z,44.60
2018-01-15T06:00:31.584Z,43.30
2018-01-15T06:01:31.524Z,41.40
2018-01-15T06:02:31.481Z,43.20
2018-01-15T06:03:31.439Z,45.00
2018-01-15T06:04:31.396Z,42.60
2018-01-15T06:05:31.358Z,41.20
2018-01-15T06:06:31.318Z,43.90
2018-01-15T06:07:31.273Z,44.80
2018-01-15T06:08:31.242Z,44.40
2018-01-15T06:09:31.191Z,45.30
2018-01-15T06:10:31.150Z,45.40
2018-01-15T06:11:31.105Z,45.10
2018-01-15T06:12:31.065Z,41.20
2018-01-15T06:13:31.024Z,39.80
2018-01-15T06:14:30.988Z,41.10
2018-01-15T06:15:30.943Z,42.00
2018-01-15T06:16:30.897Z,41.70
2018-01-15T06:17:30.856Z,45.90
2018-01-15T06:18:30.812Z,43.70
2018-01-15T06:19:30.774Z,45.70
2018-01-15T06:20:30.729Z,44.50
2018-01-15T06:21:30.688Z,43.80
2018-01-15T06:22:30.650Z,46.40
2018-01-15T06:23:30.606Z,48.00
2018-01-15T06:24:30.575Z,41.70
2018-01-15T06:25:30.523Z,48.60
2018-01-15T06:26:30.480Z,44.80
2018-01-15T06:27:30.435Z,41.60
2018-01-15T06:28:30.395Z,46.40
2018-01-15T06:29:30.353Z,44.50
2018-01-15T06:30:30.315Z,45.20
2018-01-15T06:31:30.271Z,45.70
2018-01-15T06:32:30.230Z,42.70
2018-01-15T06:33:30.187Z,44.00
2018-01-15T06:34:30.146Z,48.10
2018-01-15T06:35:30.105Z,44.90
2018-01-15T06:36:30.062Z,47.50
2018-01-15T06:37:30.021Z,44.40
2018-01-15T06:38:29.980Z,41.90
2018-01-15T06:39:29.938Z,42.00
2018-01-15T06:40:29.897Z,40.60
2018-01-15T06:41:29.854Z,51.30
2018-01-15T06:42:29.815Z,44.90
2018-01-15T06:43:29.770Z,43.00
2018-01-15T06:44:29.729Z,42.60
2018-01-15T06:45:29.686Z,46.30
2018-01-15T06:46:29.646Z,47.30
2018-01-15T06:47:29.612Z,45.90
2018-01-15T06:48:29.562Z,42.70
2018-01-15T06:49:29.531Z,43.20
2018-01-15T06:50:29.480Z,44.50
2018-01-15T06:51:29.437Z,41.30
2018-01-15T06:52:29.395Z,46.30
2018-01-15T06:53:29.355Z,40.60
2018-01-15T06:54:29.311Z,44.00
2018-01-15T06:55:29.269Z,45.40
2018-01-15T06:56:29.230Z,42.20
2018-01-15T06:57:29.188Z,44.80
2018-01-15T06:58:29.146Z,41.70
2018-01-15T06:59:29.103Z,43.90
2018-01-15T07:00:29.061Z,40.50
2018-01-15T07:01:29.022Z,41.60
2018-01-15T07:02:28.981Z,42.10
2018-01-15T07:03:28.938Z,44.90
2018-01-15T07:04:28.896Z,41.90
2018-01-15T07:05:28.857Z,42.80
2018-01-15T07:06:28.813Z,46.60
2018-01-15T07:07:28.770Z,36.90
2018-01-15T07:08:28.731Z,46.00
2018-01-15T07:09:28.689Z,40.10
2018-01-15T07:10:28.666Z,49.10
2018-01-15T07:11:28.603Z,42.70
2018-01-15T07:12:28.563Z,40.40
2018-01-15T07:13:28.523Z,47.30
2018-01-15T07:14:28.481Z,50.60
2018-01-15T07:15:28.436Z,45.70
2018-01-15T07:16:28.397Z,45.10
2018-01-15T07:17:28.355Z,43.50
2018-01-15T07:18:28.314Z,41.00
2018-01-15T07:19:28.271Z,44.20
2018-01-15T07:20:28.230Z,48.20
2018-01-15T07:21:28.193Z,47.30
2018-01-15T07:22:28.147Z,40.70
2018-01-15T07:23:28.105Z,46.90
2018-01-15T07:24:28.066Z,46.70
2018-01-15T07:25:28.023Z,44.60
2018-01-15T07:26:27.980Z,43.30
2018-01-15T07:27:27.941Z,45.70
2018-01-15T07:28:27.898Z,45.30
2018-01-15T07:29:27.857Z,43.00
2018-01-15T07:30:27.818Z,46.10
2018-01-15T07:31:27.773Z,44.30
2018-01-15T07:32:27.733Z,38.60
2018-01-15T07:33:27.693Z,41.80
2018-01-15T07:34:27.651Z,41.30
2018-01-15T07:35:27.611Z,41.20
2018-01-15T07:36:27.565Z,46.50
2018-01-15T07:37:27.525Z,47.10
2018-01-15T07:38:27.499Z,47.90
2018-01-15T07:39:27.440Z,42.60
2018-01-15T07:40:27.401Z,42.90
2018-01-15T07:41:27.359Z,43.50
2018-01-15T07:42:27.318Z,43.50
2018-01-15T07:43:27.276Z,42.30
2018-01-15T07:44:27.234Z,42.50
2018-01-15T07:45:27.195Z,43.40
2018-01-15T07:46:27.152Z,43.70
2018-01-15T07:47:27.110Z,40.70
2018-01-15T07:48:27.071Z,41.60
2018-01-15T07:49:27.034Z,39.90
2018-01-15T07:50:26.987Z,40.40
2018-01-15T07:51:26.944Z,40.30
2018-01-15T07:52:26.901Z,42.20
2018-01-15T07:53:26.865Z,37.50
2018-01-15T07:54:26.821Z,43.00
2018-01-15T07:55:26.781Z,46.00
2018-01-15T07:56:26.739Z,37.10
2018-01-15T07:57:26.696Z,37.50
2018-01-15T07:58:26.658Z,39.40
2018-01-15T07:59:26.619Z,38.40
2018-01-15T08:00:26.576Z,35.30
2018-01-15T08:01:26.536Z,38.20
2018-01-15T08:02:26.493Z,35.60
2018-01-15T08:03:26.453Z,42.00
2018-01-15T08:04:26.415Z,37.70
2018-01-15T08:05:26.373Z,36.90
2018-01-15T08:06:26.332Z,42.70
2018-01-15T08:07:26.288Z,40.90
2018-01-15T08:08:26.249Z,44.00
2018-01-15T08:09:26.266Z,38.60
2018-01-15T08:10:26.169Z,37.70
2018-01-15T08:11:26.128Z,33.80
2018-01-15T08:12:26.086Z,36.50
2018-01-15T08:13:26.046Z,35.60
2018-01-15T08:14:26.005Z,34.90
2018-01-15T08:15:25.967Z,40.10
2018-01-15T08:16:25.927Z,37.30
2018-01-15T08:17:25.884Z,36.10
2018-01-15T08:18:25.846Z,31.20
2018-01-15T08:19:25.802Z,33.10
2018-01-15T08:20:25.761Z,34.20
2018-01-15T08:21:25.719Z,35.40
2018-01-15T08:22:25.685Z,32.00
2018-01-15T08:23:25.639Z,30.50
2018-01-15T08:24:25.600Z,31.60
2018-01-15T08:25:25.559Z,33.70
2018-01-15T08:26:25.517Z,33.80
2018-01-15T08:27:25.511Z,31.70
2018-01-15T08:28:25.436Z,38.50
2018-01-15T08:29:25.394Z,34.20
2018-01-15T08:30:25.354Z,34.70
2018-01-15T08:31:25.311Z,35.30
2018-01-15T08:32:25.288Z,34.90
2018-01-15T08:33:25.231Z,32.00
2018-01-15T08:34:25.191Z,34.90
2018-01-15T08:35:25.153Z,27.60
2018-01-15T08:36:25.109Z,29.80
2018-01-15T08:37:25.069Z,30.30
2018-01-15T08:38:25.028Z,31.60
2018-01-15T08:39:24.984Z,30.30
2018-01-15T08:40:24.951Z,32.50
2018-01-15T08:41:24.905Z,30.70
2018-01-15T08:42:24.871Z,33.70
2018-01-15T08:43:24.826Z,26.60
2018-01-15T08:44:24.786Z,26.20
2018-01-15T08:45:24.744Z,27.50
2018-01-15T08:46:24.703Z,32.30
2018-01-15T08:47:24.663Z,32.50
2018-01-15T08:48:24.621Z,28.40
2018-01-15T08:49:24.580Z,26.30
2018-01-15T08:50:24.542Z,24.90
2018-01-15T08:51:24.502Z,26.40
2018-01-15T08:52:24.461Z,27.20
2018-01-15T08:53:24.421Z,31.70
2018-01-15T08:54:24.379Z,28.10
2018-01-15T08:55:24.340Z,29.60
2018-01-15T08:56:24.300Z,28.30
2018-01-15T08:57:24.259Z,25.10
2018-01-15T08:58:24.219Z,25.60
2018-01-15T08:59:24.177Z,26.20
2018-01-15T09:00:24.136Z,23.60
2018-01-15T09:01:24.098Z,22.80
2018-01-15T09:02:24.057Z,22.30
2018-01-15T09:03:24.018Z,25.50
2018-01-15T09:04:23.977Z,21.30
2018-01-15T09:05:23.936Z,23.30
2018-01-15T09:06:23.897Z,22.70
2018-01-15T09:07:23.857Z,26.70
2018-01-15T09:08:23.818Z,19.90
2018-01-15T09:09:23.779Z,22.10
2018-01-15T09:10:23.739Z,23.80
2018-01-15T09:11:23.699Z,21.50
2018-01-15T09:12:23.658Z,26.00
2018-01-15T09:13:23.618Z,24.10
2018-01-15T09:14:23.577Z,25.60
2018-01-15T09:15:23.540Z,24.10
2018-01-15T09:16:23.500Z,23.10
2018-01-15T09:17:23.461Z,26.60
2018-01-15T09:18:23.423Z,20.30
2018-01-15T09:19:23.381Z,20.40
2018-01-15T09:20:23.343Z,21.60
2018-01-15T09:21:23.303Z,18.30
2018-01-15T09:22:23.261Z,21.60
2018-01-15T09:23:23.228Z,19.50
2018-01-15T09:24:23.185Z,17.60
2018-01-15T09:25:23.142Z,20.00
2018-01-15T09:26:23.108Z,19.10
2018-01-15T09:27:23.066Z,18.30
2018-01-15T09:28:23.028Z,19.10
2018-01-15T09:29:22.987Z,17.00
2018-01-15T09:30:22.950Z,20.10
2018-01-15T09:31:22.910Z,17.90
2018-01-15T09:32:22.870Z,20.50
2018-01-15T09:33:22.832Z,17.80
2018-01-15T09:34:22.792Z,19.70
2018-01-15T09:35:22.754Z,23.80
2018-01-15T09:36:22.717Z,19.10
2018-01-15T09:37:22.679Z,18.60
2018-01-15T09:38:22.639Z,19.00
2018-01-15T09:39:22.601Z,18.10
2018-01-15T09:40:22.563Z,20.40
2018-01-15T09:41:22.521Z,21.60
2018-01-15T09:42:22.485Z,20.60
2018-01-15T09:43:22.444Z,19.20
2018-01-15T09:44:22.407Z,17.90
2018-01-15T09:45:22.369Z,18.80
2018-01-15T09:46:22.331Z,16.60
2018-01-15T09:47:22.293Z,17.30
2018-01-15T09:48:22.254Z,17.50
2018-01-15T09:49:22.214Z,17.50
2018-01-15T09:50:22.179Z,19.50
2018-01-15T09:51:22.140Z,17.50
2018-01-15T09:52:22.103Z,18.80
2018-01-15T09:53:22.065Z,18.80
2018-01-15T09:54:22.025Z,18.80
2018-01-15T09:55:21.989Z,18.20
2018-01-15T09:56:21.951Z,16.30
2018-01-15T09:57:21.917Z,15.20
2018-01-15T09:58:21.879Z,13.40
2018-01-15T09:59:21.839Z,15.70
2018-01-15T10:00:21.807Z,17.80
2018-01-15T10:01:21.774Z,15.60
2018-01-15T10:02:21.727Z,15.60
2018-01-15T10:03:21.699Z,16.70
2018-01-15T10:04:21.655Z,15.70
2018-01-15T10:05:21.616Z,16.80
2018-01-15T10:06:21.577Z,17.20
2018-01-15T10:07:21.542Z,17.00
2018-01-15T10:08:21.503Z,16.70
2018-01-15T10:09:21.465Z,16.40
2018-01-15T10:10:21.424Z,16.20
2018-01-15T10:11:21.392Z,17.30
2018-01-15T10:12:21.357Z,20.80
2018-01-15T10:13:21.321Z,15.60
2018-01-15T10:14:21.281Z,14.20
2018-01-15T10:15:21.241Z,15.10
2018-01-15T10:16:21.208Z,15.00
2018-01-15T10:17:21.166Z,15.60
2018-01-15T10:18:21.127Z,18.20
2018-01-15T10:19:21.090Z,17.40
2018-01-15T10:20:21.065Z,14.20
2018-01-15T10:21:21.015Z,15.70
2018-01-15T10:22:20.972Z,17.10
2018-01-15T10:23:20.939Z,16.10
2018-01-15T10:24:20.900Z,15.40
2018-01-15T10:25:20.865Z,15.30
2018-01-15T10:26:20.822Z,15.30
2018-01-15T10:27:20.787Z,17.80
2018-01-15T10:28:20.802Z,17.20
2018-01-15T10:29:20.712Z,17.80
2018-01-15T10:30:20.676Z,14.90
2018-01-15T10:31:20.633Z,19.90
2018-01-15T10:32:20.596Z,14.90
2018-01-15T10:33:20.558Z,18.60
2018-01-15T10:34:20.521Z,17.40
2018-01-15T10:35:20.499Z,17.10
2018-01-15T10:36:20.443Z,16.90
2018-01-15T10:37:20.405Z,20.00
2018-01-15T10:38:20.396Z,18.30
2018-01-15T10:39:20.328Z,18.60
2018-01-15T10:40:20.292Z,21.90
2018-01-15T10:41:20.254Z,20.20
2018-01-15T10:42:20.215Z,19.50
2018-01-15T10:43:20.175Z,18.00
2018-01-15T10:44:20.136Z,17.30
2018-01-15T10:45:20.101Z,19.70
2018-01-15T10:46:20.062Z,18.40
2018-01-15T10:47:20.023Z,17.10
2018-01-15T10:48:19.985Z,15.80
2018-01-15T10:49:19.953Z,17.00
2018-01-15T10:50:19.908Z,16.10
2018-01-15T10:51:19.869Z,14.20
2018-01-15T10:52:19.832Z,17.30
2018-01-15T10:53:19.813Z,14.30
2018-01-15T10:54:19.757Z,15.30
2018-01-15T10:55:19.716Z,14.40
2018-01-15T10:56:19.677Z,16.40
2018-01-15T10:57:19.658Z,16.40
2018-01-15T10:58:19.604Z,14.40
2018-01-15T10:59:19.566Z,15.70
2018-01-15T11:00:19.533Z,14.20
2018-01-15T11:01:19.517Z,15.10
2018-01-15T11:02:19.452Z,12.70
2018-01-15T11:03:19.410Z,16.10
2018-01-15T11:04:19.445Z,14.50
2018-01-15T11:05:19.336Z,13.70
2018-01-15T11:06:19.302Z,13.00
2018-01-15T11:07:19.258Z,14.40
2018-01-15T11:08:19.221Z,16.70
2018-01-15T11:09:19.212Z,13.90
2018-01-15T11:10:19.146Z,14.90
2018-01-15T11:11:19.121Z,11.60
2018-01-15T11:12:19.075Z,14.20
2018-01-15T11:13:19.033Z,13.30
2018-01-15T11:14:18.987Z,13.40
2018-01-15T11:15:18.960Z,12.50
2018-01-15T11:16:18.953Z,12.60
2018-01-15T11:17:18.888Z,11.10
2018-01-15T11:18:18.839Z,12.70
2018-01-15T11:19:18.800Z,10.20
2018-01-15T11:20:18.761Z,11.30
2018-01-15T11:21:18.732Z,13.10
2018-01-15T11:22:18.707Z,11.40
2018-01-15T11:23:18.644Z,10.70
2018-01-15T11:24:18.624Z,15.00
2018-01-15T11:25:18.570Z,10.70
2018-01-15T11:26:18.532Z,11.80
2018-01-15T11:27:18.494Z,11.60
2018-01-15T11:28:18.456Z,11.60
2018-01-15T11:29:18.467Z,13.20
2018-01-15T11:30:18.376Z,9.60
2018-01-15T11:31:18.341Z,11.80
2018-01-15T11:32:18.301Z,11.70
2018-01-15T11:33:18.287Z,9.80
2018-01-15T11:34:18.226Z,9.70
2018-01-15T11:35:18.184Z,10.70
2018-01-15T11:36:18.150Z,11.90
2018-01-15T11:37:18.121Z,11.20
2018-01-15T11:38:18.072Z,10.70
2018-01-15T11:39:18.033Z,11.40
2018-01-15T11:40:17.995Z,10.80
2018-01-15T11:41:17.961Z,9.70
2018-01-15T11:42:17.950Z,13.90
2018-01-15T11:43:17.881Z,10.60
2018-01-15T11:44:17.887Z,11.10
2018-01-15T11:45:17.819Z,9.20
2018-01-15T11:46:17.767Z,9.90
2018-01-15T11:47:17.728Z,14.50
2018-01-15T11:48:17.690Z,10.40
2018-01-15T11:49:17.659Z,9.90
2018-01-15T11:50:17.615Z,9.40
2018-01-15T11:51:17.575Z,10.00
2018-01-15T11:52:17.541Z,9.30
2018-01-15T11:53:17.498Z,10.50
2018-01-15T11:54:17.463Z,9.60
2018-01-15T11:55:17.423Z,10.50
2018-01-15T11:56:17.390Z,10.50
2018-01-15T11:57:17.346Z,9.80
2018-01-15T11:58:17.309Z,9.70
2018-01-15T11:59:17.269Z,9.40
2018-01-15T12:00:17.247Z,9.10
2018-01-15T12:01:17.194Z,8.40
2018-01-15T12:02:17.153Z,8.40
2018-01-15T12:03:17.110Z,11.20
2018-01-15T12:04:17.092Z,9.50
2018-01-15T12:05:17.037Z,9.10
2018-01-15T12:06:17.007Z,10.10
2018-01-15T12:07:16.963Z,7.70
2018-01-15T12:08:16.922Z,9.20
2018-01-15T12:09:16.886Z,8.70
2018-01-15T12:10:16.846Z,8.50
2018-01-15T12:11:16.817Z,9.30
2018-01-15T12:12:16.767Z,9.20
2018-01-15T12:13:16.740Z,9.90
2018-01-15T12:14:16.712Z,9.70
2018-01-15T12:15:17.296Z,9.40
2018-01-15T12:16:16.614Z,7.80
2018-01-15T12:17:17.294Z,7.60
2018-01-15T12:18:16.539Z,10.60
2018-01-15T12:19:16.503Z,8.80
2018-01-15T12:20:16.473Z,9.50
2018-01-15T12:21:16.454Z,9.20
2018-01-15T12:22:16.388Z,10.30
2018-01-15T12:23:16.351Z,9.30
2018-01-15T12:24:16.321Z,10.60
2018-01-15T12:25:16.278Z,9.20
2018-01-15T12:26:16.233Z,7.90
2018-01-15T12:27:16.249Z,7.50
2018-01-15T12:28:16.192Z,7.50
2018-01-15T12:29:16.126Z,7.70
2018-01-15T12:30:16.089Z,8.80
2018-01-15T12:31:16.050Z,7.70
2018-01-15T12:32:16.002Z,7.10
2018-01-15T12:33:15.995Z,8.00
2018-01-15T12:34:15.926Z,6.40
2018-01-15T12:35:15.919Z,6.60
2018-01-15T12:36:15.850Z,7.20
2018-01-15T12:37:15.820Z,7.50
2018-01-15T12:38:15.774Z,6.60
2018-01-15T12:39:15.737Z,7.00
2018-01-15T12:40:15.694Z,8.40
2018-01-15T12:41:15.685Z,6.80
2018-01-15T12:42:15.622Z,7.10
2018-01-15T12:43:15.612Z,5.50
2018-01-15T12:44:15.542Z,4.30
2018-01-15T12:45:15.504Z,5.40
2018-01-15T12:46:15.470Z,6.90
2018-01-15T12:47:15.430Z,5.50
2018-01-15T12:48:15.422Z,5.60
2018-01-15T12:49:15.354Z,4.60
2018-01-15T12:50:15.365Z,5.00
2018-01-15T12:51:15.275Z,7.10
2018-01-15T12:52:15.235Z,5.40
2018-01-15T12:53:15.196Z,5.70
2018-01-15T12:54:15.167Z,8.20